sensor_id;sensor_type;location;lat;lon;timestamp;temperature;humidity
73277;DHT22;61501;43.316;5.372;2023-12-20T00:01:32;8.30;99.90
73277;DHT22;61501;43.316;5.372;2023-12-20T00:03:58;8.30;99.90
73277;DHT22;61501;43.316;5.372;2023-12-20T00:06:23;8.20;99.90
73277;DHT22;61501;43.316;5.372;2023-12-20T00:08:49;8.20;99.90
73277;DHT22;61501;43.316;5.372;2023-12-20T00:11:15;8.30;99.90
73277;DHT22;61501;43.316;5.372;2023-12-20T00:13:40;8.20;99.90
73277;DHT22;61501;43.316;5.372;2023-12-20T00:16:06;8.20;99.90
73277;DHT22;61501;43.316;5.372;2023-12-20T00:18:32;8.20;99.90
73277;DHT22;61501;43.316;5.372;2023-12-20T00:20:57;8.20;99.90
73277;DHT22;61501;43.316;5.372;2023-12-20T00:23:23;8.30;99.90
73277;DHT22;61501;43.316;5.372;2023-12-20T00:25:49;8.20;99.90
73277;DHT22;61501;43.316;5.372;2023-12-20T00:28:15;8.20;99.90
73277;DHT22;61501;43.316;5.372;2023-12-20T00:30:40;8.30;99.90
73277;DHT22;61501;43.316;5.372;2023-12-20T00:33:06;8.30;99.90
73277;DHT22;61501;43.316;5.372;2023-12-20T00:35:32;8.30;99.90
73277;DHT22;61501;43.316;5.372;2023-12-20T00:37:58;8.40;99.70
73277;DHT22;61501;43.316;5.372;2023-12-20T00:40:24;8.40;99.60
73277;DHT22;61501;43.316;5.372;2023-12-20T00:42:50;8.30;99.20
73277;DHT22;61501;43.316;5.372;2023-12-20T00:45:15;8.30;99.40
73277;DHT22;61501;43.316;5.372;2023-12-20T00:47:41;8.30;99.00
73277;DHT22;61501;43.316;5.372;2023-12-20T00:50:08;8.30;98.80
73277;DHT22;61501;43.316;5.372;2023-12-20T00:52:34;8.20;99.10
73277;DHT22;61501;43.316;5.372;2023-12-20T00:55:00;8.30;99.30
73277;DHT22;61501;43.316;5.372;2023-12-20T00:57:25;8.20;99.50
73277;DHT22;61501;43.316;5.372;2023-12-20T00:59:51;8.20;99.80
73277;DHT22;61501;43.316;5.372;2023-12-20T01:02:17;8.20;99.90
73277;DHT22;61501;43.316;5.372;2023-12-20T01:04:42;8.10;99.90
73277;DHT22;61501;43.316;5.372;2023-12-20T01:07:08;8.10;99.90
73277;DHT22;61501;43.316;5.372;2023-12-20T01:09:34;8.10;99.90
73277;DHT22;61501;43.316;5.372;2023-12-20T01:11:59;8.10;99.90
73277;DHT22;61501;43.316;5.372;2023-12-20T01:14:25;8.10;99.90
73277;DHT22;61501;43.316;5.372;2023-12-20T01:16:51;8.10;99.90
73277;DHT22;61501;43.316;5.372;2023-12-20T01:19:16;8.00;99.90
73277;DHT22;61501;43.316;5.372;2023-12-20T01:21:42;8.00;99.90
73277;DHT22;61501;43.316;5.372;2023-12-20T01:24:08;8.10;99.90
73277;DHT22;61501;43.316;5.372;2023-12-20T01:26:33;8.00;99.90
73277;DHT22;61501;43.316;5.372;2023-12-20T01:28:59;8.00;99.90
73277;DHT22;61501;43.316;5.372;2023-12-20T01:31:24;8.00;99.90
73277;DHT22;61501;43.316;5.372;2023-12-20T01:33:52;8.00;99.90
73277;DHT22;61501;43.316;5.372;2023-12-20T01:36:18;8.00;99.90
73277;DHT22;61501;43.316;5.372;2023-12-20T01:38:44;8.00;99.90
73277;DHT22;61501;43.316;5.372;2023-12-20T01:41:09;8.10;99.90
73277;DHT22;61501;43.316;5.372;2023-12-20T01:43:35;8.10;99.90
73277;DHT22;61501;43.316;5.372;2023-12-20T01:46:01;8.10;99.90
73277;DHT22;61501;43.316;5.372;2023-12-20T01:48:27;8.10;99.90
73277;DHT22;61501;43.316;5.372;2023-12-20T01:50:53;8.10;99.90
73277;DHT22;61501;43.316;5.372;2023-12-20T01:53:21;8.10;99.90
73277;DHT22;61501;43.316;5.372;2023-12-20T01:55:48;8.10;99.90
73277;DHT22;61501;43.316;5.372;2023-12-20T01:58:15;8.10;99.90
73277;DHT22;61501;43.316;5.372;2023-12-20T02:00:42;8.20;99.90
73277;DHT22;61501;43.316;5.372;2023-12-20T02:03:08;8.20;99.90
73277;DHT22;61501;43.316;5.372;2023-12-20T02:05:37;8.20;99.90
73277;DHT22;61501;43.316;5.372;2023-12-20T02:08:04;8.20;99.90
73277;DHT22;61501;43.316;5.372;2023-12-20T02:10:31;8.30;99.90
73277;DHT22;61501;43.316;5.372;2023-12-20T02:12:57;8.30;99.90
73277;DHT22;61501;43.316;5.372;2023-12-20T02:15:22;8.40;99.90
73277;DHT22;61501;43.316;5.372;2023-12-20T02:17:49;8.40;99.90
73277;DHT22;61501;43.316;5.372;2023-12-20T02:20:14;8.40;99.90
73277;DHT22;61501;43.316;5.372;2023-12-20T02:22:40;8.50;99.90
73277;DHT22;61501;43.316;5.372;2023-12-20T02:25:06;8.60;99.90
73277;DHT22;61501;43.316;5.372;2023-12-20T02:27:32;8.70;99.90
73277;DHT22;61501;43.316;5.372;2023-12-20T02:29:57;8.70;99.90
73277;DHT22;61501;43.316;5.372;2023-12-20T02:32:24;8.90;99.90
73277;DHT22;61501;43.316;5.372;2023-12-20T02:34:54;8.90;99.90
73277;DHT22;61501;43.316;5.372;2023-12-20T02:37:19;9.00;99.90
73277;DHT22;61501;43.316;5.372;2023-12-20T02:39:45;9.00;99.90
73277;DHT22;61501;43.316;5.372;2023-12-20T02:42:10;9.00;99.90
73277;DHT22;61501;43.316;5.372;2023-12-20T02:44:36;9.00;99.90
73277;DHT22;61501;43.316;5.372;2023-12-20T02:47:02;9.00;99.90
73277;DHT22;61501;43.316;5.372;2023-12-20T02:49:28;9.00;99.90
73277;DHT22;61501;43.316;5.372;2023-12-20T02:51:54;9.10;99.90
73277;DHT22;61501;43.316;5.372;2023-12-20T02:54:19;9.00;99.90
73277;DHT22;61501;43.316;5.372;2023-12-20T02:56:45;9.00;99.90
73277;DHT22;61501;43.316;5.372;2023-12-20T02:59:10;9.10;99.90
73277;DHT22;61501;43.316;5.372;2023-12-20T03:01:45;9.10;99.90
73277;DHT22;61501;43.316;5.372;2023-12-20T03:04:11;9.10;99.90
73277;DHT22;61501;43.316;5.372;2023-12-20T03:06:37;9.10;99.90
73277;DHT22;61501;43.316;5.372;2023-12-20T03:09:03;9.00;99.90
73277;DHT22;61501;43.316;5.372;2023-12-20T03:11:29;9.10;99.90
73277;DHT22;61501;43.316;5.372;2023-12-20T03:13:58;9.00;99.90
73277;DHT22;61501;43.316;5.372;2023-12-20T03:16:23;9.10;99.90
73277;DHT22;61501;43.316;5.372;2023-12-20T03:18:49;9.00;99.90
73277;DHT22;61501;43.316;5.372;2023-12-20T03:21:15;9.20;99.90
73277;DHT22;61501;43.316;5.372;2023-12-20T03:23:41;9.20;99.90
73277;DHT22;61501;43.316;5.372;2023-12-20T03:26:07;9.20;99.90
73277;DHT22;61501;43.316;5.372;2023-12-20T03:28:33;9.10;99.90
73277;DHT22;61501;43.316;5.372;2023-12-20T03:30:59;9.10;99.90
73277;DHT22;61501;43.316;5.372;2023-12-20T03:33:24;9.10;99.90
73277;DHT22;61501;43.316;5.372;2023-12-20T03:35:50;9.10;99.90
73277;DHT22;61501;43.316;5.372;2023-12-20T03:38:16;9.10;99.90
73277;DHT22;61501;43.316;5.372;2023-12-20T03:40:41;9.10;99.90
73277;DHT22;61501;43.316;5.372;2023-12-20T03:43:07;9.10;99.90
73277;DHT22;61501;43.316;5.372;2023-12-20T03:45:33;9.20;99.90
73277;DHT22;61501;43.316;5.372;2023-12-20T03:47:59;9.20;99.90
73277;DHT22;61501;43.316;5.372;2023-12-20T03:50:27;9.20;99.90
73277;DHT22;61501;43.316;5.372;2023-12-20T03:52:53;9.20;99.90
73277;DHT22;61501;43.316;5.372;2023-12-20T03:55:19;9.20;99.90
73277;DHT22;61501;43.316;5.372;2023-12-20T03:57:44;9.20;99.90
73277;DHT22;61501;43.316;5.372;2023-12-20T04:00:11;9.30;99.90
73277;DHT22;61501;43.316;5.372;2023-12-20T04:02:38;9.30;99.90
73277;DHT22;61501;43.316;5.372;2023-12-20T04:05:04;9.20;99.90
73277;DHT22;61501;43.316;5.372;2023-12-20T04:07:30;9.20;99.90
73277;DHT22;61501;43.316;5.372;2023-12-20T04:09:56;9.10;99.90
73277;DHT22;61501;43.316;5.372;2023-12-20T04:12:22;9.20;99.90
73277;DHT22;61501;43.316;5.372;2023-12-20T04:14:47;9.20;99.90
73277;DHT22;61501;43.316;5.372;2023-12-20T04:17:13;9.20;99.90
73277;DHT22;61501;43.316;5.372;2023-12-20T04:19:41;9.20;99.90
73277;DHT22;61501;43.316;5.372;2023-12-20T04:22:07;9.10;99.90
73277;DHT22;61501;43.316;5.372;2023-12-20T04:24:32;9.20;99.90
73277;DHT22;61501;43.316;5.372;2023-12-20T04:26:58;9.20;99.90
73277;DHT22;61501;43.316;5.372;2023-12-20T04:29:23;9.20;99.90
73277;DHT22;61501;43.316;5.372;2023-12-20T04:31:49;9.20;99.90
73277;DHT22;61501;43.316;5.372;2023-12-20T04:34:17;9.20;99.90
73277;DHT22;61501;43.316;5.372;2023-12-20T04:36:42;9.30;99.90
73277;DHT22;61501;43.316;5.372;2023-12-20T04:39:08;9.20;99.90
73277;DHT22;61501;43.316;5.372;2023-12-20T04:41:34;9.20;99.90
73277;DHT22;61501;43.316;5.372;2023-12-20T04:43:59;9.20;99.90
73277;DHT22;61501;43.316;5.372;2023-12-20T04:46:26;9.30;99.90
73277;DHT22;61501;43.316;5.372;2023-12-20T04:48:52;9.40;99.90
73277;DHT22;61501;43.316;5.372;2023-12-20T04:51:17;9.40;99.90
73277;DHT22;61501;43.316;5.372;2023-12-20T04:53:43;9.40;99.90
73277;DHT22;61501;43.316;5.372;2023-12-20T04:56:09;9.40;99.90
73277;DHT22;61501;43.316;5.372;2023-12-20T04:58:35;9.50;99.90
73277;DHT22;61501;43.316;5.372;2023-12-20T05:01:00;9.60;99.90
73277;DHT22;61501;43.316;5.372;2023-12-20T05:03:26;9.60;99.90
73277;DHT22;61501;43.316;5.372;2023-12-20T05:05:52;9.70;99.90
73277;DHT22;61501;43.316;5.372;2023-12-20T05:08:17;9.80;99.90
73277;DHT22;61501;43.316;5.372;2023-12-20T05:10:43;9.80;99.90
73277;DHT22;61501;43.316;5.372;2023-12-20T05:13:09;9.90;99.90
73277;DHT22;61501;43.316;5.372;2023-12-20T05:15:34;9.90;99.90
73277;DHT22;61501;43.316;5.372;2023-12-20T05:18:00;9.90;99.90
73277;DHT22;61501;43.316;5.372;2023-12-20T05:20:25;10.00;99.90
73277;DHT22;61501;43.316;5.372;2023-12-20T05:22:51;10.00;99.90
73277;DHT22;61501;43.316;5.372;2023-12-20T05:25:17;10.00;99.90
73277;DHT22;61501;43.316;5.372;2023-12-20T05:27:42;10.10;99.90
73277;DHT22;61501;43.316;5.372;2023-12-20T05:30:08;10.00;99.90
73277;DHT22;61501;43.316;5.372;2023-12-20T05:32:34;10.00;99.90
73277;DHT22;61501;43.316;5.372;2023-12-20T05:35:00;10.00;99.90
73277;DHT22;61501;43.316;5.372;2023-12-20T05:37:25;9.90;99.90
73277;DHT22;61501;43.316;5.372;2023-12-20T05:39:51;9.90;99.90
73277;DHT22;61501;43.316;5.372;2023-12-20T05:42:16;10.00;99.90
73277;DHT22;61501;43.316;5.372;2023-12-20T05:44:42;10.00;99.90
73277;DHT22;61501;43.316;5.372;2023-12-20T05:47:08;10.00;99.90
73277;DHT22;61501;43.316;5.372;2023-12-20T05:49:33;10.00;99.90
73277;DHT22;61501;43.316;5.372;2023-12-20T05:51:59;10.00;99.90
73277;DHT22;61501;43.316;5.372;2023-12-20T05:54:24;10.00;99.90
73277;DHT22;61501;43.316;5.372;2023-12-20T05:56:50;10.00;99.90
73277;DHT22;61501;43.316;5.372;2023-12-20T05:59:16;10.10;99.90
73277;DHT22;61501;43.316;5.372;2023-12-20T06:01:41;10.20;99.90
73277;DHT22;61501;43.316;5.372;2023-12-20T06:04:07;10.40;99.90
73277;DHT22;61501;43.316;5.372;2023-12-20T06:06:33;10.70;99.90
73277;DHT22;61501;43.316;5.372;2023-12-20T06:08:58;10.90;99.90
73277;DHT22;61501;43.316;5.372;2023-12-20T06:11:24;10.90;99.90
73277;DHT22;61501;43.316;5.372;2023-12-20T06:13:50;11.00;99.90
73277;DHT22;61501;43.316;5.372;2023-12-20T06:16:18;11.00;99.90
73277;DHT22;61501;43.316;5.372;2023-12-20T06:18:44;11.00;99.90
73277;DHT22;61501;43.316;5.372;2023-12-20T06:21:10;11.10;99.90
73277;DHT22;61501;43.316;5.372;2023-12-20T06:23:38;11.10;99.90
73277;DHT22;61501;43.316;5.372;2023-12-20T06:26:04;11.20;99.90
73277;DHT22;61501;43.316;5.372;2023-12-20T06:28:30;11.20;99.90
73277;DHT22;61501;43.316;5.372;2023-12-20T06:30:55;11.20;99.90
73277;DHT22;61501;43.316;5.372;2023-12-20T06:33:22;11.20;99.90
73277;DHT22;61501;43.316;5.372;2023-12-20T06:35:48;11.20;99.90
73277;DHT22;61501;43.316;5.372;2023-12-20T06:38:14;11.20;99.90
73277;DHT22;61501;43.316;5.372;2023-12-20T06:40:40;11.30;99.90
73277;DHT22;61501;43.316;5.372;2023-12-20T06:43:05;11.30;99.90
73277;DHT22;61501;43.316;5.372;2023-12-20T06:45:32;11.30;99.90
73277;DHT22;61501;43.316;5.372;2023-12-20T06:47:58;11.30;99.90
73277;DHT22;61501;43.316;5.372;2023-12-20T06:50:24;11.40;99.90
73277;DHT22;61501;43.316;5.372;2023-12-20T06:53:22;11.40;99.90
73277;DHT22;61501;43.316;5.372;2023-12-20T06:55:48;11.30;99.90
73277;DHT22;61501;43.316;5.372;2023-12-20T06:58:14;11.30;99.90
73277;DHT22;61501;43.316;5.372;2023-12-20T07:00:39;11.30;99.90
73277;DHT22;61501;43.316;5.372;2023-12-20T07:03:05;11.40;99.90
73277;DHT22;61501;43.316;5.372;2023-12-20T07:05:30;11.40;99.90
73277;DHT22;61501;43.316;5.372;2023-12-20T07:07:56;11.40;99.90
73277;DHT22;61501;43.316;5.372;2023-12-20T07:10:22;11.50;99.90
73277;DHT22;61501;43.316;5.372;2023-12-20T07:12:47;11.40;99.90
73277;DHT22;61501;43.316;5.372;2023-12-20T07:15:14;11.40;99.90
73277;DHT22;61501;43.316;5.372;2023-12-20T07:17:40;11.50;99.90
73277;DHT22;61501;43.316;5.372;2023-12-20T07:20:06;11.40;99.90
73277;DHT22;61501;43.316;5.372;2023-12-20T07:22:35;11.50;99.90
73277;DHT22;61501;43.316;5.372;2023-12-20T07:25:00;11.40;99.90
73277;DHT22;61501;43.316;5.372;2023-12-20T07:27:26;11.40;99.90
73277;DHT22;61501;43.316;5.372;2023-12-20T07:29:52;11.40;99.90
73277;DHT22;61501;43.316;5.372;2023-12-20T07:32:18;11.40;99.90
73277;DHT22;61501;43.316;5.372;2023-12-20T07:34:44;11.30;99.90
73277;DHT22;61501;43.316;5.372;2023-12-20T07:37:10;11.30;99.90
73277;DHT22;61501;43.316;5.372;2023-12-20T07:39:39;11.30;99.90
73277;DHT22;61501;43.316;5.372;2023-12-20T07:42:05;11.30;99.90
73277;DHT22;61501;43.316;5.372;2023-12-20T07:44:31;11.30;99.90
73277;DHT22;61501;43.316;5.372;2023-12-20T07:46:57;11.20;99.90
73277;DHT22;61501;43.316;5.372;2023-12-20T07:49:23;11.20;99.90
73277;DHT22;61501;43.316;5.372;2023-12-20T07:51:49;11.20;99.90
73277;DHT22;61501;43.316;5.372;2023-12-20T07:54:15;11.30;99.90
73277;DHT22;61501;43.316;5.372;2023-12-20T07:56:41;11.20;99.90
73277;DHT22;61501;43.316;5.372;2023-12-20T07:59:07;11.30;99.90
73277;DHT22;61501;43.316;5.372;2023-12-20T08:01:32;11.20;99.90
73277;DHT22;61501;43.316;5.372;2023-12-20T08:03:58;11.20;99.90
73277;DHT22;61501;43.316;5.372;2023-12-20T08:06:24;11.30;99.90
73277;DHT22;61501;43.316;5.372;2023-12-20T08:08:49;11.30;99.90
73277;DHT22;61501;43.316;5.372;2023-12-20T08:11:16;11.30;99.90
73277;DHT22;61501;43.316;5.372;2023-12-20T08:13:45;11.30;99.90
73277;DHT22;61501;43.316;5.372;2023-12-20T08:16:11;11.30;99.90
73277;DHT22;61501;43.316;5.372;2023-12-20T08:18:39;11.30;99.90
73277;DHT22;61501;43.316;5.372;2023-12-20T08:21:04;11.40;99.90
73277;DHT22;61501;43.316;5.372;2023-12-20T08:23:33;11.40;99.90
73277;DHT22;61501;43.316;5.372;2023-12-20T08:25:58;11.50;99.90
73277;DHT22;61501;43.316;5.372;2023-12-20T08:28:28;11.40;99.90
73277;DHT22;61501;43.316;5.372;2023-12-20T08:30:54;11.50;99.90
73277;DHT22;61501;43.316;5.372;2023-12-20T08:33:20;11.40;99.90
73277;DHT22;61501;43.316;5.372;2023-12-20T08:35:45;11.40;99.90
73277;DHT22;61501;43.316;5.372;2023-12-20T08:38:11;11.50;99.90
73277;DHT22;61501;43.316;5.372;2023-12-20T08:40:37;11.80;99.90
73277;DHT22;61501;43.316;5.372;2023-12-20T08:43:03;11.90;99.90
73277;DHT22;61501;43.316;5.372;2023-12-20T08:45:31;11.70;99.90
73277;DHT22;61501;43.316;5.372;2023-12-20T08:47:57;11.50;99.90
73277;DHT22;61501;43.316;5.372;2023-12-20T08:50:23;11.40;99.90
73277;DHT22;61501;43.316;5.372;2023-12-20T08:52:49;11.50;99.90
73277;DHT22;61501;43.316;5.372;2023-12-20T08:55:14;11.50;99.90
73277;DHT22;61501;43.316;5.372;2023-12-20T08:57:41;11.40;99.90
73277;DHT22;61501;43.316;5.372;2023-12-20T09:00:08;11.50;99.90
73277;DHT22;61501;43.316;5.372;2023-12-20T09:02:34;11.60;99.90
73277;DHT22;61501;43.316;5.372;2023-12-20T09:05:02;11.60;99.90
73277;DHT22;61501;43.316;5.372;2023-12-20T09:07:28;11.80;99.90
73277;DHT22;61501;43.316;5.372;2023-12-20T09:09:56;11.70;99.90
73277;DHT22;61501;43.316;5.372;2023-12-20T09:12:22;11.70;99.90
73277;DHT22;61501;43.316;5.372;2023-12-20T09:14:49;11.60;99.90
73277;DHT22;61501;43.316;5.372;2023-12-20T09:17:18;11.70;99.90
73277;DHT22;61501;43.316;5.372;2023-12-20T09:19:44;11.70;99.90
73277;DHT22;61501;43.316;5.372;2023-12-20T09:22:10;11.60;99.90
73277;DHT22;61501;43.316;5.372;2023-12-20T09:24:36;11.60;99.90
73277;DHT22;61501;43.316;5.372;2023-12-20T09:27:02;11.50;99.90
73277;DHT22;61501;43.316;5.372;2023-12-20T09:29:30;11.50;99.90
73277;DHT22;61501;43.316;5.372;2023-12-20T09:31:56;11.50;99.90
73277;DHT22;61501;43.316;5.372;2023-12-20T09:34:23;11.40;99.90
73277;DHT22;61501;43.316;5.372;2023-12-20T09:36:48;11.30;99.90
73277;DHT22;61501;43.316;5.372;2023-12-20T09:39:14;11.30;99.90
73277;DHT22;61501;43.316;5.372;2023-12-20T09:41:44;11.30;99.90
73277;DHT22;61501;43.316;5.372;2023-12-20T09:44:15;11.30;99.90
73277;DHT22;61501;43.316;5.372;2023-12-20T09:46:44;11.20;99.90
73277;DHT22;61501;43.316;5.372;2023-12-20T09:49:14;11.20;99.90
73277;DHT22;61501;43.316;5.372;2023-12-20T09:51:41;11.20;99.90
73277;DHT22;61501;43.316;5.372;2023-12-20T09:54:07;11.30;99.90
73277;DHT22;61501;43.316;5.372;2023-12-20T09:56:33;11.20;99.90
73277;DHT22;61501;43.316;5.372;2023-12-20T09:59:02;11.20;99.90
73277;DHT22;61501;43.316;5.372;2023-12-20T10:01:28;11.30;99.90
73277;DHT22;61501;43.316;5.372;2023-12-20T10:03:56;11.40;99.90
73277;DHT22;61501;43.316;5.372;2023-12-20T10:06:24;11.30;99.90
73277;DHT22;61501;43.316;5.372;2023-12-20T10:08:49;11.30;99.90
73277;DHT22;61501;43.316;5.372;2023-12-20T10:11:15;11.20;99.90
73277;DHT22;61501;43.316;5.372;2023-12-20T10:13:41;11.30;99.90
73277;DHT22;61501;43.316;5.372;2023-12-20T10:16:09;11.30;99.90
73277;DHT22;61501;43.316;5.372;2023-12-20T10:18:35;11.20;99.90
73277;DHT22;61501;43.316;5.372;2023-12-20T10:21:01;11.30;99.90
73277;DHT22;61501;43.316;5.372;2023-12-20T10:23:29;11.20;99.90
73277;DHT22;61501;43.316;5.372;2023-12-20T10:25:56;11.10;99.90
73277;DHT22;61501;43.316;5.372;2023-12-20T10:28:23;11.10;99.90
73277;DHT22;61501;43.316;5.372;2023-12-20T10:30:53;11.10;99.90
73277;DHT22;61501;43.316;5.372;2023-12-20T10:33:26;11.10;99.90
73277;DHT22;61501;43.316;5.372;2023-12-20T10:35:52;11.00;99.90
73277;DHT22;61501;43.316;5.372;2023-12-20T10:38:18;11.10;99.90
73277;DHT22;61501;43.316;5.372;2023-12-20T10:40:45;11.00;99.90
73277;DHT22;61501;43.316;5.372;2023-12-20T10:43:12;11.10;99.90
73277;DHT22;61501;43.316;5.372;2023-12-20T10:45:38;11.10;99.90
73277;DHT22;61501;43.316;5.372;2023-12-20T10:48:05;11.00;99.90
73277;DHT22;61501;43.316;5.372;2023-12-20T10:50:31;11.10;99.90
73277;DHT22;61501;43.316;5.372;2023-12-20T10:52:57;11.10;99.90
73277;DHT22;61501;43.316;5.372;2023-12-20T10:55:23;11.10;99.90
73277;DHT22;61501;43.316;5.372;2023-12-20T10:57:51;11.10;99.90
73277;DHT22;61501;43.316;5.372;2023-12-20T11:00:18;11.10;99.90
73277;DHT22;61501;43.316;5.372;2023-12-20T11:02:44;11.20;99.90
73277;DHT22;61501;43.316;5.372;2023-12-20T11:05:26;11.20;99.90
73277;DHT22;61501;43.316;5.372;2023-12-20T11:08:00;11.20;99.90
73277;DHT22;61501;43.316;5.372;2023-12-20T11:10:33;11.20;99.90
73277;DHT22;61501;43.316;5.372;2023-12-20T11:13:12;11.10;99.90
73277;DHT22;61501;43.316;5.372;2023-12-20T11:15:42;11.20;99.90
73277;DHT22;61501;43.316;5.372;2023-12-20T11:18:08;11.30;99.90
73277;DHT22;61501;43.316;5.372;2023-12-20T11:20:40;11.30;99.90
73277;DHT22;61501;43.316;5.372;2023-12-20T11:23:06;11.40;99.90
73277;DHT22;61501;43.316;5.372;2023-12-20T11:26:05;11.40;99.90
73277;DHT22;61501;43.316;5.372;2023-12-20T11:28:31;11.40;99.90
73277;DHT22;61501;43.316;5.372;2023-12-20T11:30:58;11.50;99.90
73277;DHT22;61501;43.316;5.372;2023-12-20T11:33:38;11.40;99.90
73277;DHT22;61501;43.316;5.372;2023-12-20T11:36:13;11.50;99.90
73277;DHT22;61501;43.316;5.372;2023-12-20T11:38:57;11.60;99.90
73277;DHT22;61501;43.316;5.372;2023-12-20T11:41:32;11.60;99.90
73277;DHT22;61501;43.316;5.372;2023-12-20T11:43:58;11.50;99.90
73277;DHT22;61501;43.316;5.372;2023-12-20T11:46:24;11.60;99.90
73277;DHT22;61501;43.316;5.372;2023-12-20T11:48:50;11.60;99.90
73277;DHT22;61501;43.316;5.372;2023-12-20T11:51:16;11.60;99.90
73277;DHT22;61501;43.316;5.372;2023-12-20T11:53:42;11.60;99.90
73277;DHT22;61501;43.316;5.372;2023-12-20T11:56:08;11.80;99.90
73277;DHT22;61501;43.316;5.372;2023-12-20T11:58:34;11.80;99.90
73277;DHT22;61501;43.316;5.372;2023-12-20T12:01:01;11.80;99.90
73277;DHT22;61501;43.316;5.372;2023-12-20T12:03:28;11.70;99.90
73277;DHT22;61501;43.316;5.372;2023-12-20T12:05:53;11.70;99.90
73277;DHT22;61501;43.316;5.372;2023-12-20T12:08:19;11.60;99.90
73277;DHT22;61501;43.316;5.372;2023-12-20T12:10:45;11.60;99.90
73277;DHT22;61501;43.316;5.372;2023-12-20T12:13:11;11.60;99.90
73277;DHT22;61501;43.316;5.372;2023-12-20T12:15:37;11.70;99.90
73277;DHT22;61501;43.316;5.372;2023-12-20T12:18:03;11.60;99.90
73277;DHT22;61501;43.316;5.372;2023-12-20T12:20:30;11.60;99.90
73277;DHT22;61501;43.316;5.372;2023-12-20T12:23:02;11.80;99.90
73277;DHT22;61501;43.316;5.372;2023-12-20T12:25:34;11.80;99.90
73277;DHT22;61501;43.316;5.372;2023-12-20T12:28:00;11.90;99.90
73277;DHT22;61501;43.316;5.372;2023-12-20T12:30:26;11.80;99.90
73277;DHT22;61501;43.316;5.372;2023-12-20T12:32:52;11.90;99.90
73277;DHT22;61501;43.316;5.372;2023-12-20T12:35:19;12.00;99.90
73277;DHT22;61501;43.316;5.372;2023-12-20T12:37:45;12.10;99.90
73277;DHT22;61501;43.316;5.372;2023-12-20T12:40:12;12.10;99.90
73277;DHT22;61501;43.316;5.372;2023-12-20T12:42:39;13.00;99.90
73277;DHT22;61501;43.316;5.372;2023-12-20T12:45:05;13.40;99.90
73277;DHT22;61501;43.316;5.372;2023-12-20T12:47:31;13.50;99.90
73277;DHT22;61501;43.316;5.372;2023-12-20T12:49:57;13.80;99.80
73277;DHT22;61501;43.316;5.372;2023-12-20T12:52:23;14.70;97.50
73277;DHT22;61501;43.316;5.372;2023-12-20T12:54:49;14.60;96.10
73277;DHT22;61501;43.316;5.372;2023-12-20T12:57:15;14.70;95.10
73277;DHT22;61501;43.316;5.372;2023-12-20T12:59:43;14.50;95.50
73277;DHT22;61501;43.316;5.372;2023-12-20T13:02:14;14.50;95.40
73277;DHT22;61501;43.316;5.372;2023-12-20T13:04:40;14.70;94.50
73277;DHT22;61501;43.316;5.372;2023-12-20T13:07:07;14.70;93.90
73277;DHT22;61501;43.316;5.372;2023-12-20T13:09:36;15.00;93.40
73277;DHT22;61501;43.316;5.372;2023-12-20T13:12:01;15.10;93.00
73277;DHT22;61501;43.316;5.372;2023-12-20T13:14:30;15.30;92.10
73277;DHT22;61501;43.316;5.372;2023-12-20T13:16:56;15.00;91.90
73277;DHT22;61501;43.316;5.372;2023-12-20T13:19:21;14.60;92.90
73277;DHT22;61501;43.316;5.372;2023-12-20T13:21:47;14.50;93.40
73277;DHT22;61501;43.316;5.372;2023-12-20T13:24:14;14.90;92.50
73277;DHT22;61501;43.316;5.372;2023-12-20T13:26:39;14.70;92.60
73277;DHT22;61501;43.316;5.372;2023-12-20T13:29:05;14.60;92.50
73277;DHT22;61501;43.316;5.372;2023-12-20T13:31:31;15.00;91.90
73277;DHT22;61501;43.316;5.372;2023-12-20T13:33:56;15.10;91.70
73277;DHT22;61501;43.316;5.372;2023-12-20T13:36:22;16.00;88.50
73277;DHT22;61501;43.316;5.372;2023-12-20T13:38:48;16.20;86.10
73277;DHT22;61501;43.316;5.372;2023-12-20T13:41:13;16.90;80.70
73277;DHT22;61501;43.316;5.372;2023-12-20T13:43:39;16.70;80.20
73277;DHT22;61501;43.316;5.372;2023-12-20T13:46:05;16.30;81.30
73277;DHT22;61501;43.316;5.372;2023-12-20T13:48:30;16.70;79.00
73277;DHT22;61501;43.316;5.372;2023-12-20T13:50:56;16.80;74.80
73277;DHT22;61501;43.316;5.372;2023-12-20T13:53:22;16.60;75.50
73277;DHT22;61501;43.316;5.372;2023-12-20T13:55:47;16.90;73.80
73277;DHT22;61501;43.316;5.372;2023-12-20T13:58:13;17.20;71.90
73277;DHT22;61501;43.316;5.372;2023-12-20T14:00:39;18.40;67.40
73277;DHT22;61501;43.316;5.372;2023-12-20T14:03:05;18.10;67.50
73277;DHT22;61501;43.316;5.372;2023-12-20T14:05:31;17.70;68.50
73277;DHT22;61501;43.316;5.372;2023-12-20T14:07:57;17.20;68.90
73277;DHT22;61501;43.316;5.372;2023-12-20T14:10:23;17.00;71.40
73277;DHT22;61501;43.316;5.372;2023-12-20T14:12:49;16.90;69.60
73277;DHT22;61501;43.316;5.372;2023-12-20T14:15:14;17.00;72.00
73277;DHT22;61501;43.316;5.372;2023-12-20T14:17:40;17.50;66.30
73277;DHT22;61501;43.316;5.372;2023-12-20T14:20:09;17.80;67.70
73277;DHT22;61501;43.316;5.372;2023-12-20T14:22:35;17.40;67.70
73277;DHT22;61501;43.316;5.372;2023-12-20T14:25:01;17.10;69.90
73277;DHT22;61501;43.316;5.372;2023-12-20T14:27:27;17.00;70.10
73277;DHT22;61501;43.316;5.372;2023-12-20T14:29:54;16.90;69.40
73277;DHT22;61501;43.316;5.372;2023-12-20T14:32:20;16.70;68.90
73277;DHT22;61501;43.316;5.372;2023-12-20T14:34:45;15.80;71.40
73277;DHT22;61501;43.316;5.372;2023-12-20T14:37:11;14.90;76.80
73277;DHT22;61501;43.316;5.372;2023-12-20T14:39:37;15.30;74.90
73277;DHT22;61501;43.316;5.372;2023-12-20T14:42:07;15.40;75.00
73277;DHT22;61501;43.316;5.372;2023-12-20T14:44:37;15.30;74.10
73277;DHT22;61501;43.316;5.372;2023-12-20T14:47:03;15.30;74.40
73277;DHT22;61501;43.316;5.372;2023-12-20T14:49:30;15.00;74.80
73277;DHT22;61501;43.316;5.372;2023-12-20T14:51:55;15.00;75.30
73277;DHT22;61501;43.316;5.372;2023-12-20T14:54:21;14.20;77.60
73277;DHT22;61501;43.316;5.372;2023-12-20T14:56:47;13.60;81.20
73277;DHT22;61501;43.316;5.372;2023-12-20T14:59:13;13.10;84.90
73277;DHT22;61501;43.316;5.372;2023-12-20T15:01:39;12.70;88.00
73277;DHT22;61501;43.316;5.372;2023-12-20T15:04:08;12.40;90.20
73277;DHT22;61501;43.316;5.372;2023-12-20T15:06:34;12.40;90.20
73277;DHT22;61501;43.316;5.372;2023-12-20T15:09:00;12.20;90.90
73277;DHT22;61501;43.316;5.372;2023-12-20T15:11:26;12.20;90.60
73277;DHT22;61501;43.316;5.372;2023-12-20T15:13:52;12.40;90.20
73277;DHT22;61501;43.316;5.372;2023-12-20T15:16:22;12.90;86.10
73277;DHT22;61501;43.316;5.372;2023-12-20T15:18:48;13.10;85.10
73277;DHT22;61501;43.316;5.372;2023-12-20T15:21:15;13.50;83.60
73277;DHT22;61501;43.316;5.372;2023-12-20T15:23:40;13.60;82.70
73277;DHT22;61501;43.316;5.372;2023-12-20T15:26:18;13.60;82.00
73277;DHT22;61501;43.316;5.372;2023-12-20T15:28:43;14.10;78.70
73277;DHT22;61501;43.316;5.372;2023-12-20T15:31:09;13.30;81.30